Portada
METAR-TAF:

METAR-TAF

Aeropuertos :

Aeropuerto de Helsinki-Vantaa

Helsinki, Finlandia

latitud: 60-19N, longitud: 024-58E, altitud: 51 m

Observación

El informe se hizo hace 39 minutos, a las 01:20 UTC
Viento 10 kt del sur-suroeste
Temperatura 4°C
Humedad 87%
Presión 993 hPa
Visibilidad 10 km o más
Cielo nuboso a una altura de 2000 ft

METAR: EFHK 190120Z 21010KT 9999 BKN020 04/02 Q0993 NOSIG

Hora: 03:59 (01:59 UTC)

Pronóstico

El informe se hizo hace 2 horas y 32 minutos, a las 23:27 UTC
Pronóstico válido del 19 a las 00 UTC al 19 a las 24 UTC
Viento 11 kt del suroeste
Visibilidad 10 km o más
Cielo nuboso a una altura de 1300 ft
Evolucionando progresivamente
del 19 a las 00 UTC al 19 a las 02 UTC
Cielo nuboso a una altura de 1600 ft
Evolucionando progresivamente
del 19 a las 22 UTC al 19 a las 24 UTC
Viento 4 kt del oeste-noroeste

TAF: EFHK 182327Z 1900/1924 22011KT 9999 BKN013 BECMG 1900/1902 BKN016 BECMG 1922/1924 30004KT

Observaciones y pronósticos meteorológicos de más de 4000 aeropuertos (mensajes METAR y TAF).

Los puntos amarillos y rojos representan las estaciones disponibles.

Ponga el ratón en el punto deseado para ver el nombre de la estación.

Haga clic para ver las observaciones y los pronósticos meteorológicos.

Para cambiar el mapa : haga clic en los botones verdes con una cruz de color negro para hacer un zoom, en el botón verde con un guión para alejar o en las flechas verdes para mapas adyacentes.


METAR-TAF: